Time;durP1;ratioP1;P1;durP2;ratioP2;P2;SDS_P1;SDS_P2;PMS_P1;PMS_P2;Temp;Humidity;BMP_temperature;BMP_pressure;BME280_temperature;BME280_humidity;BME280_pressure;Samples;Min_cycle;Max_cycle;Signal;HPM_P1;HPM_P2
2024/03/15 00:00:47;;;;;;;27.53;24.30;;;9.10;99.90;;;;;;4806864;29;20279;-52
2024/03/15 00:03:12;;;;;;;29.50;25.20;;;9.10;99.90;;;;;;4809445;29;20430;-51
2024/03/15 00:05:38;;;;;;;27.17;23.70;;;9.10;99.90;;;;;;4808698;29;21398;-51
2024/03/15 00:08:04;;;;;;;29.13;24.10;;;9.00;99.90;;;;;;4802561;29;20275;-52
2024/03/15 00:10:29;;;;;;;29.63;25.23;;;9.00;99.90;;;;;;4802589;29;20194;-51
2024/03/15 00:12:55;;;;;;;28.60;24.07;;;9.00;99.90;;;;;;4810525;29;20300;-51
2024/03/15 00:15:22;;;;;;;31.00;25.97;;;8.90;99.90;;;;;;4802937;29;20620;-52
2024/03/15 00:17:47;;;;;;;27.83;24.50;;;8.90;99.90;;;;;;4799204;29;20493;-52
2024/03/15 00:20:13;;;;;;;29.40;25.17;;;8.90;99.90;;;;;;4808114;29;20440;-53
2024/03/15 00:22:39;;;;;;;26.83;23.80;;;8.90;99.90;;;;;;4796727;29;20428;-51
2024/03/15 00:25:05;;;;;;;30.93;25.47;;;8.90;99.90;;;;;;4807583;29;20232;-48
2024/03/15 00:27:30;;;;;;;28.73;24.90;;;8.90;99.90;;;;;;4796371;29;20197;-54
2024/03/15 00:29:56;;;;;;;29.30;24.97;;;8.80;99.90;;;;;;4797602;29;20432;-52
2024/03/15 00:32:25;;;;;;;27.13;24.20;;;8.80;99.90;;;;;;4796255;29;20297;-50
2024/03/15 00:34:51;;;;;;;29.40;25.37;;;8.70;99.90;;;;;;4803957;29;20186;-53
2024/03/15 00:37:17;;;;;;;28.17;25.17;;;8.70;99.90;;;;;;4803780;29;20964;-49
2024/03/15 00:39:43;;;;;;;27.80;25.03;;;8.70;99.90;;;;;;4800663;29;20211;-52
2024/03/15 00:42:09;;;;;;;31.90;26.30;;;8.60;99.90;;;;;;4806483;29;20428;-50
2024/03/15 00:44:35;;;;;;;28.47;25.43;;;8.60;99.90;;;;;;4800317;29;20480;-45
2024/03/15 00:47:01;;;;;;;27.73;24.73;;;8.50;99.90;;;;;;4799042;29;20497;-43
2024/03/15 00:49:26;;;;;;;27.77;24.07;;;8.50;99.90;;;;;;4793983;29;20197;-41
2024/03/15 00:51:52;;;;;;;31.77;25.47;;;8.50;99.90;;;;;;4809098;29;20185;-40
2024/03/15 00:54:18;;;;;;;30.30;26.27;;;8.40;99.90;;;;;;4813124;29;21235;-45
2024/03/15 00:56:43;;;;;;;32.13;25.77;;;8.40;99.90;;;;;;4806689;29;20192;-43
2024/03/15 00:59:09;;;;;;;32.10;25.60;;;8.40;99.90;;;;;;4811446;29;20225;-44
2024/03/15 01:01:35;;;;;;;27.83;24.80;;;8.40;99.90;;;;;;4797588;29;20670;-46
2024/03/15 01:04:03;;;;;;;28.90;25.30;;;8.30;99.90;;;;;;4799990;29;20427;-46
2024/03/15 01:06:29;;;;;;;27.00;24.20;;;8.30;99.90;;;;;;4797923;29;20569;-44
2024/03/15 01:08:56;;;;;;;28.60;25.20;;;8.20;99.90;;;;;;4806340;29;20435;-43
2024/03/15 01:11:22;;;;;;;29.63;25.97;;;8.20;99.90;;;;;;4804551;29;21336;-41
2024/03/15 01:13:48;;;;;;;27.60;24.67;;;8.20;99.90;;;;;;4799916;29;20556;-39
2024/03/15 01:16:14;;;;;;;28.47;24.37;;;8.20;99.90;;;;;;4784358;29;20440;-45
2024/03/15 01:18:40;;;;;;;28.40;25.37;;;8.10;99.90;;;;;;4808875;29;20434;-43
2024/03/15 01:21:06;;;;;;;27.93;24.90;;;8.10;99.90;;;;;;4800404;29;20199;-40
2024/03/15 01:23:32;;;;;;;33.07;24.77;;;8.10;99.90;;;;;;4792430;29;20431;-40
2024/03/15 01:25:57;;;;;;;28.30;24.20;;;8.10;99.90;;;;;;4798874;29;20325;-47
2024/03/15 01:28:23;;;;;;;29.40;25.67;;;8.10;99.90;;;;;;4809301;29;20504;-42
2024/03/15 01:30:48;;;;;;;27.90;23.67;;;8.10;99.90;;;;;;4802387;29;20182;-39
2024/03/15 01:33:14;;;;;;;27.67;24.80;;;8.10;99.90;;;;;;4800697;29;21365;-45
2024/03/15 01:35:40;;;;;;;28.53;25.00;;;8.10;99.90;;;;;;4800716;29;20198;-39
2024/03/15 01:38:06;;;;;;;27.57;23.93;;;8.00;99.90;;;;;;4794682;29;20201;-41
2024/03/15 01:40:35;;;;;;;29.00;24.10;;;8.00;99.90;;;;;;4798944;29;20656;-45
2024/03/15 01:43:01;;;;;;;27.60;24.63;;;8.00;99.90;;;;;;4799800;29;20432;-43
2024/03/15 01:45:27;;;;;;;29.27;24.43;;;8.00;99.90;;;;;;4806569;29;20940;-40
2024/03/15 01:47:53;;;;;;;27.23;23.00;;;7.90;99.90;;;;;;4802734;29;20273;-43
2024/03/15 01:50:22;;;;;;;29.40;23.47;;;7.90;99.90;;;;;;4810420;29;20423;-39
2024/03/15 01:52:49;;;;;;;31.93;25.53;;;8.00;99.90;;;;;;4804219;29;20500;-45
2024/03/15 01:55:15;;;;;;;29.33;25.33;;;8.00;99.90;;;;;;4802741;29;20945;-45
2024/03/15 01:57:41;;;;;;;27.90;23.23;;;8.00;99.90;;;;;;4806727;29;20443;-40
2024/03/15 02:00:09;;;;;;;27.10;24.03;;;7.90;99.90;;;;;;4806385;29;20561;-48
2024/03/15 02:02:36;;;;;;;25.67;23.03;;;7.90;99.90;;;;;;4795467;29;20190;-50
2024/03/15 02:05:01;;;;;;;28.50;22.90;;;7.90;99.90;;;;;;4794805;29;20756;-52
2024/03/15 02:07:27;;;;;;;29.97;23.03;;;7.90;99.90;;;;;;4802175;29;20444;-50
2024/03/15 02:09:57;;;;;;;25.30;22.60;;;7.90;99.90;;;;;;4781327;29;20198;-51
2024/03/15 02:12:23;;;;;;;26.20;23.50;;;7.80;99.90;;;;;;4801799;29;20198;-51
2024/03/15 02:14:50;;;;;;;26.87;24.00;;;7.80;99.90;;;;;;4805145;29;20479;-52
2024/03/15 02:17:16;;;;;;;26.20;22.00;;;7.80;99.90;;;;;;4804449;29;20439;-50
2024/03/15 02:19:44;;;;;;;26.30;23.50;;;7.80;99.90;;;;;;4810575;29;20499;-51
2024/03/15 02:22:10;;;;;;;24.07;21.43;;;7.80;99.90;;;;;;4804969;29;20523;-52
2024/03/15 02:24:36;;;;;;;25.57;22.77;;;7.80;99.90;;;;;;4792740;29;20447;-49
2024/03/15 02:27:03;;;;;;;31.40;22.20;;;7.80;99.90;;;;;;4804278;29;20939;-51
2024/03/15 02:29:29;;;;;;;24.30;21.30;;;7.70;99.90;;;;;;4793488;29;20432;-51
2024/03/15 02:31:54;;;;;;;27.90;21.37;;;7.80;99.90;;;;;;4798184;29;20558;-53
2024/03/15 02:34:20;;;;;;;26.00;20.90;;;7.80;99.90;;;;;;4806464;29;20918;-46
2024/03/15 02:36:46;;;;;;;23.70;21.20;;;7.80;99.90;;;;;;4809476;29;20193;-50
2024/03/15 02:39:16;;;;;;;23.63;21.13;;;7.80;99.90;;;;;;4801910;29;20246;-50
2024/03/15 02:41:45;;;;;;;24.57;21.27;;;7.80;99.90;;;;;;4798479;29;20432;-50
2024/03/15 02:44:12;;;;;;;25.27;21.10;;;7.80;99.90;;;;;;4805339;29;20439;-41
2024/03/15 02:46:37;;;;;;;24.67;22.13;;;7.80;99.90;;;;;;4784776;29;20483;-41
2024/03/15 02:49:03;;;;;;;24.57;20.70;;;7.80;99.90;;;;;;4803629;29;20494;-40
2024/03/15 02:51:30;;;;;;;25.90;21.50;;;7.80;99.90;;;;;;4807599;29;20867;-43
2024/03/15 02:53:55;;;;;;;25.07;22.43;;;7.80;99.90;;;;;;4787833;29;20443;-46
2024/03/15 02:56:21;;;;;;;25.00;22.30;;;7.90;99.90;;;;;;4804025;29;20462;-54
2024/03/15 02:58:47;;;;;;;28.50;21.60;;;7.80;99.90;;;;;;4804930;29;20976;-51
2024/03/15 03:01:14;;;;;;;24.87;21.00;;;7.80;99.90;;;;;;4798323;29;20431;-48
2024/03/15 03:03:40;;;;;;;27.07;20.47;;;7.90;99.90;;;;;;4804413;29;20293;-52
2024/03/15 03:06:06;;;;;;;23.63;19.83;;;7.80;99.90;;;;;;4810859;29;20486;-52
2024/03/15 03:08:34;;;;;;;23.17;19.80;;;7.80;99.90;;;;;;4798367;29;20783;-48
2024/03/15 03:10:59;;;;;;;20.47;18.47;;;7.90;99.90;;;;;;4801110;29;20191;-51
2024/03/15 03:13:25;;;;;;;22.50;20.17;;;7.90;99.90;;;;;;4798614;29;20439;-53
2024/03/15 03:15:51;;;;;;;23.27;20.47;;;8.00;99.90;;;;;;4808013;29;21064;-48
2024/03/15 03:18:16;;;;;;;25.23;21.23;;;8.00;99.90;;;;;;4810400;29;20258;-49
2024/03/15 03:20:42;;;;;;;26.00;21.73;;;8.00;99.90;;;;;;4797110;29;20277;-52
2024/03/15 03:23:11;;;;;;;24.90;21.20;;;8.00;99.90;;;;;;4792870;29;20206;-51
2024/03/15 03:25:37;;;;;;;22.77;20.07;;;8.00;99.90;;;;;;4797592;29;20631;-47
2024/03/15 03:28:03;;;;;;;26.03;21.33;;;8.00;99.90;;;;;;4799755;29;20519;-47
2024/03/15 03:30:28;;;;;;;22.57;19.77;;;8.00;99.90;;;;;;4808032;29;20221;-49
2024/03/15 03:32:54;;;;;;;27.40;20.40;;;8.10;99.90;;;;;;4797910;29;20199;-50
2024/03/15 03:35:19;;;;;;;23.80;19.73;;;8.10;99.90;;;;;;4797029;29;20201;-53
2024/03/15 03:37:45;;;;;;;24.00;20.33;;;8.10;99.90;;;;;;4797709;29;20274;-52
2024/03/15 03:40:14;;;;;;;22.97;19.57;;;8.10;99.90;;;;;;4799774;29;20208;-54
2024/03/15 03:42:44;;;;;;;22.40;20.00;;;8.20;99.90;;;;;;4805482;29;20285;-54
2024/03/15 03:45:16;;;;;;;23.53;20.37;;;8.10;99.90;;;;;;4810973;29;21126;-49
2024/03/15 03:47:46;;;;;;;24.50;20.97;;;8.20;99.90;;;;;;4807666;29;20941;-49
2024/03/15 03:50:12;;;;;;;23.80;20.03;;;8.20;99.90;;;;;;4787756;29;20457;-49
2024/03/15 03:52:39;;;;;;;21.63;19.37;;;8.10;99.90;;;;;;4803625;29;20428;-51
2024/03/15 03:55:08;;;;;;;22.80;19.80;;;8.20;99.90;;;;;;4802496;29;20194;-51
2024/03/15 03:57:37;;;;;;;22.20;20.00;;;8.20;99.90;;;;;;4803731;29;20443;-53
2024/03/15 04:00:16;;;;;;;23.00;19.90;;;8.20;99.90;;;;;;4803406;29;20428;-52
2024/03/15 04:02:46;;;;;;;22.07;19.43;;;8.20;99.90;;;;;;4804735;29;20427;-51
2024/03/15 04:05:15;;;;;;;21.93;19.20;;;8.30;99.90;;;;;;4801491;29;20483;-53
2024/03/15 04:07:44;;;;;;;20.73;18.63;;;8.30;99.90;;;;;;4806988;29;20460;-55
2024/03/15 04:10:10;;;;;;;21.80;19.50;;;8.30;99.90;;;;;;4807624;29;20438;-52
2024/03/15 04:12:35;;;;;;;25.23;19.80;;;8.30;99.90;;;;;;4802416;29;20424;-49
2024/03/15 04:15:10;;;;;;;20.90;18.80;;;8.30;99.90;;;;;;4797087;29;20258;-48
2024/03/15 04:17:36;;;;;;;21.67;19.47;;;8.30;99.90;;;;;;4799091;29;20247;-50
2024/03/15 04:20:02;;;;;;;19.73;17.37;;;8.30;99.90;;;;;;4799912;29;20440;-49
2024/03/15 04:22:28;;;;;;;21.80;19.60;;;8.30;99.90;;;;;;4788944;29;20991;-50
2024/03/15 04:24:54;;;;;;;20.07;18.07;;;8.30;99.90;;;;;;4799640;29;20471;-50
2024/03/15 04:27:20;;;;;;;20.23;17.60;;;8.40;99.90;;;;;;4805037;29;20262;-50
2024/03/15 04:29:46;;;;;;;20.40;18.43;;;8.40;99.90;;;;;;4801144;29;20424;-50
2024/03/15 04:32:12;;;;;;;21.60;18.27;;;8.40;99.90;;;;;;4801946;29;20488;-52
2024/03/15 04:34:38;;;;;;;20.93;18.60;;;8.40;99.90;;;;;;4799615;29;20187;-53
2024/03/15 04:37:10;;;;;;;21.20;18.27;;;8.40;99.90;;;;;;4802757;29;20427;-51
2024/03/15 04:39:36;;;;;;;20.77;18.03;;;8.40;99.90;;;;;;4802900;29;20206;-47
2024/03/15 04:42:05;;;;;;;22.77;18.20;;;8.40;99.90;;;;;;4808940;29;20970;-46
2024/03/15 04:44:36;;;;;;;21.20;19.00;;;8.40;99.90;;;;;;4801781;29;20175;-49
2024/03/15 04:47:08;;;;;;;21.07;18.80;;;8.40;99.90;;;;;;4802411;29;20962;-55
2024/03/15 04:49:34;;;;;;;20.40;18.40;;;8.40;99.90;;;;;;4796165;29;20440;-54
2024/03/15 04:52:00;;;;;;;19.70;17.07;;;8.40;99.90;;;;;;4795806;29;20485;-53
2024/03/15 04:54:26;;;;;;;20.70;18.53;;;8.50;99.90;;;;;;4807014;29;20195;-54
2024/03/15 04:56:52;;;;;;;20.47;18.50;;;8.50;99.90;;;;;;4796005;29;20432;-55
2024/03/15 04:59:19;;;;;;;19.73;17.63;;;8.60;99.90;;;;;;4796229;29;20427;-53
2024/03/15 05:01:45;;;;;;;19.43;17.53;;;8.50;99.90;;;;;;4798564;29;20430;-51
2024/03/15 05:04:11;;;;;;;21.43;19.33;;;8.60;99.90;;;;;;4796998;29;20893;-52
2024/03/15 05:06:37;;;;;;;19.47;17.57;;;8.60;99.90;;;;;;4802245;29;20587;-50
2024/03/15 05:09:04;;;;;;;20.60;18.50;;;8.70;99.90;;;;;;4797519;29;20458;-51
2024/03/15 05:11:31;;;;;;;22.53;18.97;;;8.80;99.90;;;;;;4797348;29;20205;-53
2024/03/15 05:13:56;;;;;;;20.40;18.40;;;8.80;99.90;;;;;;4800990;29;20474;-49
2024/03/15 05:16:22;;;;;;;19.43;17.43;;;8.90;99.90;;;;;;4799739;29;20919;-50
2024/03/15 05:18:48;;;;;;;19.93;18.00;;;8.90;99.90;;;;;;4811997;29;20441;-55
2024/03/15 05:21:13;;;;;;;20.63;18.67;;;8.90;99.90;;;;;;4795761;29;20233;-48
2024/03/15 05:23:39;;;;;;;20.77;18.77;;;9.10;99.90;;;;;;4805067;29;20563;-53
2024/03/15 05:26:05;;;;;;;19.30;17.40;;;9.10;99.90;;;;;;4784419;29;20278;-52
2024/03/15 05:28:33;;;;;;;20.17;18.27;;;9.20;99.90;;;;;;4798659;29;20198;-52
2024/03/15 05:30:59;;;;;;;22.60;18.13;;;9.30;99.90;;;;;;4795293;29;20977;-51
2024/03/15 05:33:25;;;;;;;19.97;18.07;;;9.40;99.90;;;;;;4813171;29;20446;-48
2024/03/15 05:35:51;;;;;;;20.20;18.20;;;9.50;99.90;;;;;;4805968;29;20436;-51
2024/03/15 05:38:17;;;;;;;20.30;18.30;;;9.60;99.90;;;;;;4795196;29;20455;-53
2024/03/15 05:40:43;;;;;;;20.23;18.20;;;9.60;99.90;;;;;;4799930;29;20447;-53
2024/03/15 05:43:09;;;;;;;19.00;17.13;;;9.70;99.90;;;;;;4795617;29;20458;-55
2024/03/15 05:45:35;;;;;;;21.07;18.97;;;9.80;99.90;;;;;;4797384;29;20218;-54
2024/03/15 05:48:01;;;;;;;19.93;18.13;;;9.90;99.90;;;;;;4811644;29;20638;-49
2024/03/15 05:50:26;;;;;;;20.23;17.97;;;9.90;99.90;;;;;;4806218;29;20431;-49
2024/03/15 05:52:52;;;;;;;20.17;18.30;;;10.00;99.90;;;;;;4805401;29;20460;-54
2024/03/15 05:55:18;;;;;;;20.30;17.80;;;10.00;99.90;;;;;;4810616;29;20201;-50
2024/03/15 05:57:44;;;;;;;19.97;17.97;;;10.10;99.90;;;;;;4811440;29;20285;-50
2024/03/15 06:00:13;;;;;;;20.10;17.73;;;10.20;99.90;;;;;;4811471;29;20309;-53
2024/03/15 06:02:39;;;;;;;20.03;18.13;;;10.20;99.90;;;;;;4796813;29;20447;-53
2024/03/15 06:05:07;;;;;;;21.27;19.27;;;10.20;99.90;;;;;;4801466;29;20982;-50
2024/03/15 06:07:32;;;;;;;20.80;18.90;;;10.30;99.90;;;;;;4805934;29;20914;-51
2024/03/15 06:09:58;;;;;;;20.07;18.07;;;10.40;99.90;;;;;;4795106;29;20454;-48
2024/03/15 06:12:27;;;;;;;19.90;18.00;;;10.40;99.90;;;;;;4794238;29;20199;-50
2024/03/15 06:14:53;;;;;;;20.43;18.50;;;10.50;99.90;;;;;;4793313;29;20709;-48
2024/03/15 06:17:19;;;;;;;20.03;18.03;;;10.60;99.90;;;;;;4798605;29;20448;-53
2024/03/15 06:19:45;;;;;;;19.40;17.63;;;10.70;99.90;;;;;;4808978;29;20816;-49
2024/03/15 06:22:11;;;;;;;20.33;18.23;;;10.80;99.90;;;;;;4799948;29;20456;-49
2024/03/15 06:24:37;;;;;;;20.97;18.93;;;10.90;99.90;;;;;;4805407;29;20190;-51
2024/03/15 06:27:05;;;;;;;19.70;17.90;;;11.00;99.90;;;;;;4796211;29;20959;-50
2024/03/15 06:29:33;;;;;;;19.07;17.30;;;11.00;99.90;;;;;;4802951;29;20783;-52
2024/03/15 06:31:59;;;;;;;17.93;16.23;;;11.10;99.90;;;;;;4797915;29;20507;-52
2024/03/15 06:34:27;;;;;;;19.73;17.60;;;11.20;99.90;;;;;;4808321;29;20431;-51
2024/03/15 06:36:54;;;;;;;20.13;18.13;;;11.20;99.90;;;;;;4798885;29;20423;-48
2024/03/15 06:40:01;;;;;;;18.83;17.13;;;11.30;99.90;;;;;;4800662;29;20507;-52
2024/03/15 06:42:23;;;;;;;19.57;17.73;;;11.40;99.90;;;;;;4792541;29;20455;-40
2024/03/15 06:45:03;;;;;;;19.20;17.50;;;11.40;99.90;;;;;;4795864;29;20483;-45
2024/03/15 06:47:31;;;;;;;19.50;17.80;;;11.50;99.90;;;;;;4801907;29;20446;-41
2024/03/15 06:50:30;;;;;;;19.53;17.53;;;11.60;99.90;;;;;;4795371;29;20442;-42
2024/03/15 06:52:54;;;;;;;19.73;17.87;;;11.60;99.90;;;;;;4808355;29;20435;-42
2024/03/15 06:55:20;;;;;;;20.73;18.53;;;11.70;99.90;;;;;;4801042;29;20889;-44
2024/03/15 06:57:48;;;;;;;20.17;18.37;;;11.80;99.90;;;;;;4796093;29;20233;-45
2024/03/15 07:00:14;;;;;;;20.03;18.23;;;11.80;99.90;;;;;;4810797;29;20434;-43
2024/03/15 07:02:43;;;;;;;19.57;17.87;;;11.80;99.90;;;;;;4802546;29;20915;-42
2024/03/15 07:05:19;;;;;;;19.20;17.40;;;11.90;99.90;;;;;;4810438;29;20697;-46
2024/03/15 07:07:45;;;;;;;19.20;17.40;;;12.00;99.90;;;;;;4800056;29;20954;-43
2024/03/15 07:10:11;;;;;;;19.87;18.17;;;12.00;99.90;;;;;;4805798;29;20482;-44
2024/03/15 07:12:39;;;;;;;19.90;18.00;;;12.00;99.90;;;;;;4803686;29;21145;-47
2024/03/15 07:15:11;;;;;;;21.00;19.00;;;12.10;99.90;;;;;;4773167;29;21091;-41
2024/03/15 07:17:37;;;;;;;19.63;18.03;;;12.20;99.90;;;;;;4780235;29;20448;-42
2024/03/15 07:20:12;;;;;;;19.83;18.03;;;12.20;99.90;;;;;;4785046;29;20932;-40
2024/03/15 07:22:40;;;;;;;20.17;18.23;;;12.30;99.90;;;;;;4781260;29;20533;-43
2024/03/15 07:25:06;;;;;;;20.77;19.00;;;12.40;99.90;;;;;;4778841;29;20472;-43
2024/03/15 07:27:32;;;;;;;21.23;19.30;;;12.50;99.90;;;;;;4784406;29;20542;-44
2024/03/15 07:30:01;;;;;;;21.00;19.20;;;12.60;99.90;;;;;;4791544;29;20510;-40
2024/03/15 07:32:27;;;;;;;22.03;19.83;;;12.70;99.90;;;;;;4780814;29;20454;-42
2024/03/15 07:34:53;;;;;;;21.33;19.53;;;12.60;99.90;;;;;;4781654;29;20940;-40
2024/03/15 07:37:19;;;;;;;22.33;20.43;;;12.70;99.90;;;;;;4783488;29;20504;-42
2024/03/15 07:39:45;;;;;;;21.60;19.70;;;12.80;99.90;;;;;;4777938;29;20328;-42
2024/03/15 07:42:11;;;;;;;22.13;19.90;;;12.90;99.90;;;;;;4782173;29;20195;-51
2024/03/15 07:44:37;;;;;;;21.30;19.20;;;12.90;99.90;;;;;;4778456;29;20828;-48
2024/03/15 07:47:03;;;;;;;21.80;19.13;;;13.00;99.90;;;;;;4777591;29;20195;-54
2024/03/15 07:49:29;;;;;;;20.87;19.07;;;13.10;99.90;;;;;;4781132;29;20441;-51
2024/03/15 07:51:56;;;;;;;20.83;19.03;;;13.10;99.90;;;;;;4784450;29;20519;-39
2024/03/15 07:54:22;;;;;;;20.67;18.83;;;13.20;99.90;;;;;;4791372;29;20477;-42
2024/03/15 07:56:48;;;;;;;20.60;18.70;;;13.40;99.90;;;;;;4784857;29;20825;-44
2024/03/15 07:59:13;;;;;;;19.83;17.73;;;13.40;99.90;;;;;;4792821;29;20444;-40
2024/03/15 08:01:41;;;;;;;21.60;19.60;;;13.50;99.90;;;;;;4790980;29;20963;-40
2024/03/15 08:04:08;;;;;;;22.17;19.57;;;13.60;99.90;;;;;;4790715;29;20202;-44
2024/03/15 08:06:35;;;;;;;20.50;18.60;;;13.70;99.90;;;;;;4793951;29;21115;-42
2024/03/15 08:09:04;;;;;;;20.20;18.43;;;13.80;99.90;;;;;;4784528;29;20507;-43
2024/03/15 08:11:33;;;;;;;21.83;19.80;;;14.00;99.90;;;;;;4794703;29;20428;-46
2024/03/15 08:13:59;;;;;;;21.00;19.20;;;14.00;99.90;;;;;;4791811;29;20897;-41
2024/03/15 08:16:33;;;;;;;22.10;19.90;;;14.00;99.90;;;;;;4807338;29;20428;-45
2024/03/15 08:19:01;;;;;;;22.37;20.27;;;14.10;99.90;;;;;;4806556;29;20466;-43
2024/03/15 08:21:27;;;;;;;22.03;20.03;;;14.20;99.90;;;;;;4796171;29;20451;-54
2024/03/15 08:23:53;;;;;;;22.67;20.67;;;14.30;99.90;;;;;;4800995;29;20470;-48
2024/03/15 08:26:20;;;;;;;22.43;20.23;;;14.30;99.90;;;;;;4802262;29;20612;-51
2024/03/15 08:28:49;;;;;;;21.83;19.70;;;14.20;99.90;;;;;;4804292;29;20583;-51
2024/03/15 08:31:17;;;;;;;21.10;19.20;;;14.30;99.90;;;;;;4812249;29;20442;-53
2024/03/15 08:33:47;;;;;;;22.77;20.67;;;14.40;99.90;;;;;;4800399;29;20495;-47
2024/03/15 08:36:13;;;;;;;22.77;20.00;;;14.50;99.90;;;;;;4808399;29;20447;-50
2024/03/15 08:38:39;;;;;;;22.50;20.20;;;14.80;99.90;;;;;;4802601;29;20451;-51
2024/03/15 08:41:06;;;;;;;23.30;21.10;;;15.30;99.90;;;;;;4797812;29;20693;-53
2024/03/15 08:43:31;;;;;;;20.80;18.90;;;15.70;99.90;;;;;;4796323;29;20459;-53
2024/03/15 08:45:57;;;;;;;20.77;18.60;;;16.20;98.90;;;;;;4805125;29;20825;-54
2024/03/15 08:48:23;;;;;;;20.77;18.77;;;16.50;98.00;;;;;;4804103;29;20330;-44
2024/03/15 08:50:48;;;;;;;20.63;18.73;;;16.80;97.00;;;;;;4801044;29;20195;-46
2024/03/15 08:53:14;;;;;;;19.53;18.00;;;16.90;95.80;;;;;;4798748;29;20716;-44
2024/03/15 08:55:41;;;;;;;21.83;19.83;;;17.10;95.00;;;;;;4800279;29;20198;-44
2024/03/15 08:58:11;;;;;;;20.93;19.10;;;17.30;94.70;;;;;;4799618;29;20186;-42
2024/03/15 09:00:39;;;;;;;21.63;19.57;;;17.50;94.20;;;;;;4806128;29;20423;-49
2024/03/15 09:03:06;;;;;;;20.80;19.13;;;17.60;93.60;;;;;;4805652;29;20503;-40
2024/03/15 09:05:32;;;;;;;21.30;19.60;;;18.00;93.20;;;;;;4807784;29;20507;-46
2024/03/15 09:07:58;;;;;;;21.33;19.60;;;18.20;92.30;;;;;;4806452;29;20515;-46
2024/03/15 09:10:24;;;;;;;20.80;18.90;;;18.40;91.80;;;;;;4806438;29;20197;-45
2024/03/15 09:12:50;;;;;;;23.17;20.97;;;18.60;91.10;;;;;;4811477;29;20524;-42
2024/03/15 09:15:17;;;;;;;22.57;20.60;;;18.50;90.70;;;;;;4793309;29;20567;-42
2024/03/15 09:17:43;;;;;;;22.63;20.53;;;18.40;90.60;;;;;;4810747;29;20897;-47
2024/03/15 09:20:27;;;;;;;21.40;19.70;;;18.30;90.90;;;;;;4800475;29;20431;-49
2024/03/15 09:22:57;;;;;;;21.90;20.00;;;18.40;91.10;;;;;;4802629;29;20447;-49
2024/03/15 09:25:23;;;;;;;22.77;20.67;;;18.60;90.90;;;;;;4801466;29;20565;-43
2024/03/15 09:27:53;;;;;;;23.73;21.80;;;18.80;90.40;;;;;;4809644;29;20788;-43
2024/03/15 09:33:11;;;;;;;21.53;19.60;;;19.30;89.40;;;;;;4804803;29;20484;-44
2024/03/15 09:35:40;;;;;;;22.20;20.23;;;19.50;87.60;;;;;;4805910;29;20627;-42
2024/03/15 09:38:06;;;;;;;21.27;19.37;;;19.70;85.20;;;;;;4804276;29;20500;-45
2024/03/15 09:40:33;;;;;;;21.30;19.70;;;19.90;84.60;;;;;;4793830;29;20448;-46
2024/03/15 09:42:59;;;;;;;22.90;21.10;;;20.20;83.90;;;;;;4797589;29;20454;-44
2024/03/15 09:45:26;;;;;;;21.27;19.33;;;20.80;80.90;;;;;;4806431;29;20478;-41
2024/03/15 09:47:53;;;;;;;20.70;19.10;;;21.30;77.80;;;;;;4808712;29;20189;-44
2024/03/15 09:50:24;;;;;;;20.13;18.50;;;21.80;75.80;;;;;;4797546;29;20435;-53
2024/03/15 09:52:55;;;;;;;20.10;18.40;;;22.20;72.20;;;;;;4802066;29;20975;-52
2024/03/15 09:55:21;;;;;;;19.17;17.73;;;22.70;69.30;;;;;;4810455;29;20427;-55
2024/03/15 09:57:49;;;;;;;20.70;19.20;;;22.70;68.10;;;;;;4807149;29;20457;-52
2024/03/15 10:00:24;;;;;;;19.40;17.67;;;22.90;65.90;;;;;;4804041;29;20736;-51
2024/03/15 10:02:54;;;;;;;19.43;17.93;;;23.00;64.80;;;;;;4801813;29;20426;-53
2024/03/15 10:05:21;;;;;;;19.10;17.60;;;22.80;63.00;;;;;;4803904;29;20497;-54
2024/03/15 10:07:47;;;;;;;20.57;18.80;;;22.80;63.50;;;;;;4809339;29;20411;-53
2024/03/15 10:10:14;;;;;;;19.50;18.00;;;22.90;64.00;;;;;;4799124;29;20500;-51
2024/03/15 10:12:47;;;;;;;20.80;19.23;;;23.30;62.20;;;;;;4809540;29;20427;-54
2024/03/15 10:15:15;;;;;;;17.77;16.47;;;23.50;60.30;;;;;;4804876;29;21233;-54
2024/03/15 10:17:46;;;;;;;18.37;16.87;;;23.60;59.90;;;;;;4808614;29;20431;-54
2024/03/15 10:20:20;;;;;;;18.90;17.50;;;23.60;58.80;;;;;;4806008;29;20462;-53
2024/03/15 10:22:48;;;;;;;18.60;17.00;;;23.60;57.80;;;;;;4811267;29;20442;-53
2024/03/15 10:25:16;;;;;;;18.10;16.70;;;23.60;58.40;;;;;;4808321;29;20470;-54
2024/03/15 10:27:45;;;;;;;18.13;16.83;;;23.80;57.50;;;;;;4810635;29;20930;-50
2024/03/15 10:30:16;;;;;;;18.77;17.07;;;23.70;57.60;;;;;;4803229;29;20996;-51
2024/03/15 10:32:49;;;;;;;19.00;17.70;;;23.60;57.00;;;;;;4798405;29;20784;-44
2024/03/15 10:35:16;;;;;;;18.87;17.37;;;23.50;56.90;;;;;;4803779;29;20431;-53
2024/03/15 10:37:43;;;;;;;18.43;17.17;;;23.50;57.10;;;;;;4802713;29;21538;-51
2024/03/15 10:40:17;;;;;;;17.90;16.50;;;23.70;55.60;;;;;;4803233;29;20775;-54
2024/03/15 10:42:46;;;;;;;15.73;14.73;;;23.50;56.50;;;;;;4803632;29;20427;-53
2024/03/15 10:45:19;;;;;;;12.57;11.80;;;24.00;55.00;;;;;;4800710;29;20507;-54
2024/03/15 10:47:45;;;;;;;11.67;11.07;;;23.50;52.60;;;;;;4807786;29;20451;-54
2024/03/15 10:50:16;;;;;;;12.00;11.40;;;22.20;53.30;;;;;;4797086;29;20478;-52
2024/03/15 10:52:44;;;;;;;12.17;11.57;;;21.50;55.20;;;;;;4798693;29;20432;-52
2024/03/15 10:55:20;;;;;;;12.30;11.70;;;21.10;56.30;;;;;;4809306;29;20530;-52
2024/03/15 10:57:46;;;;;;;11.37;10.77;;;20.70;57.00;;;;;;4800401;29;20450;-54
2024/03/15 11:00:17;;;;;;;11.77;11.07;;;20.70;57.80;;;;;;4808934;29;20467;-51
2024/03/15 11:02:43;;;;;;;12.67;12.03;;;20.30;58.10;;;;;;4800153;29;20512;-48
2024/03/15 11:05:22;;;;;;;11.33;10.53;;;20.40;59.10;;;;;;4803810;29;20827;-52
2024/03/15 11:08:00;;;;;;;11.93;11.30;;;20.20;58.00;;;;;;4804386;29;20485;-51
2024/03/15 11:10:26;;;;;;;11.60;10.93;;;20.00;58.20;;;;;;4796725;29;20451;-52
2024/03/15 11:12:52;;;;;;;10.83;10.23;;;20.30;59.00;;;;;;4808264;29;21019;-50
2024/03/15 11:15:24;;;;;;;12.30;11.60;;;20.90;58.10;;;;;;4801935;29;20250;-51
2024/03/15 11:18:06;;;;;;;11.70;11.10;;;20.90;56.10;;;;;;4807487;29;20527;-51
2024/03/15 11:20:54;;;;;;;10.50;10.00;;;21.90;56.20;;;;;;4811976;29;20819;-49
2024/03/15 11:23:25;;;;;;;9.90;9.30;;;22.60;52.10;;;;;;4805087;29;20454;-52
2024/03/15 11:26:07;;;;;;;11.70;11.10;;;22.60;50.70;;;;;;4803619;29;20889;-51
2024/03/15 11:28:35;;;;;;;11.20;10.60;;;22.90;49.20;;;;;;4800272;29;21042;-50
2024/03/15 11:31:01;;;;;;;11.90;11.30;;;23.00;48.90;;;;;;4811082;29;20430;-49
2024/03/15 11:33:28;;;;;;;10.23;9.73;;;23.20;47.80;;;;;;4807802;29;20446;-49
2024/03/15 11:35:56;;;;;;;10.93;10.33;;;23.30;47.90;;;;;;4801140;29;20450;-48
2024/03/15 11:38:22;;;;;;;10.70;10.20;;;24.00;48.10;;;;;;4809792;29;20538;-50
2024/03/15 11:40:51;;;;;;;10.93;10.43;;;24.20;44.40;;;;;;4804488;29;20638;-46
2024/03/15 11:43:16;;;;;;;10.20;9.70;;;24.30;45.30;;;;;;4802183;29;20194;-50
2024/03/15 11:45:47;;;;;;;11.00;10.37;;;25.10;45.30;;;;;;4809691;29;20474;-50
2024/03/15 11:48:17;;;;;;;10.90;10.40;;;25.70;43.50;;;;;;4808240;29;20182;-50
2024/03/15 11:50:46;;;;;;;11.30;10.70;;;25.90;42.80;;;;;;4799602;29;20432;-52
2024/03/15 11:53:14;;;;;;;10.83;10.33;;;26.00;41.70;;;;;;4800473;29;20531;-47
2024/03/15 11:55:40;;;;;;;11.33;10.83;;;26.10;40.10;;;;;;4803083;29;20428;-50
2024/03/15 11:58:13;;;;;;;11.40;10.60;;;26.40;39.50;;;;;;4800430;29;20458;-53
2024/03/15 12:00:39;;;;;;;10.60;9.90;;;26.60;37.00;;;;;;4807668;29;20530;-48
2024/03/15 12:03:08;;;;;;;10.77;10.30;;;26.70;36.40;;;;;;4803950;29;20852;-47
2024/03/15 12:05:38;;;;;;;10.63;10.13;;;27.40;37.00;;;;;;4809298;29;20474;-51
2024/03/15 12:08:11;;;;;;;11.10;10.60;;;27.50;33.80;;;;;;4806300;29;20423;-51
2024/03/15 12:10:37;;;;;;;11.37;10.87;;;26.90;34.80;;;;;;4807742;29;20737;-43
2024/03/15 12:13:11;;;;;;;11.07;10.57;;;27.10;34.40;;;;;;4807756;29;20462;-46
2024/03/15 12:15:38;;;;;;;11.17;10.67;;;27.00;35.20;;;;;;4811659;29;20451;-44
2024/03/15 12:18:10;;;;;;;11.90;11.30;;;27.60;34.30;;;;;;4803364;29;21333;-47
2024/03/15 12:20:37;;;;;;;10.07;9.67;;;27.70;32.70;;;;;;4812834;29;20958;-43
2024/03/15 12:23:05;;;;;;;10.77;10.10;;;27.80;31.90;;;;;;4803715;29;20419;-43
2024/03/15 12:25:30;;;;;;;11.00;10.50;;;27.10;32.00;;;;;;4793188;29;20486;-41
2024/03/15 12:27:56;;;;;;;11.57;11.07;;;26.50;33.90;;;;;;4800756;29;20439;-43
2024/03/15 12:30:21;;;;;;;11.60;11.03;;;25.90;33.10;;;;;;4800930;29;20653;-42
2024/03/15 12:32:47;;;;;;;10.90;10.30;;;24.90;35.00;;;;;;4800109;29;20236;-43
2024/03/15 12:35:13;;;;;;;11.30;10.80;;;25.20;35.00;;;;;;4808970;29;20209;-43